Time;durP1;ratioP1;P1;durP2;ratioP2;P2;SDS_P1;SDS_P2;PMS_P1;PMS_P2;Temp;Humidity;BMP_temperature;BMP_pressure;BME280_temperature;BME280_humidity;BME280_pressure;Samples;Min_cycle;Max_cycle;Signal;HPM_P1;HPM_P2
2022/04/30 00:01:07;;;;;;;18.15;9.68;;;5.00;99.90;;;;;;5052445;28;20048;-84
2022/04/30 00:03:32;;;;;;;18.88;9.00;;;5.00;99.90;;;;;;5051664;28;20048;-84
2022/04/30 00:05:58;;;;;;;18.10;9.07;;;4.90;99.90;;;;;;5052459;28;20376;-86
2022/04/30 00:08:24;;;;;;;13.68;9.48;;;4.90;99.90;;;;;;5052654;28;20053;-83
2022/04/30 00:10:50;;;;;;;16.73;9.40;;;5.10;99.90;;;;;;5035297;28;20052;-86
2022/04/30 00:13:17;;;;;;;16.95;9.52;;;4.80;99.90;;;;;;5034791;28;20093;-84
2022/04/30 00:15:44;;;;;;;20.98;10.10;;;4.80;99.90;;;;;;5035406;28;20049;-83
2022/04/30 00:18:10;;;;;;;19.05;9.35;;;4.70;99.90;;;;;;5053595;28;20052;-84
2022/04/30 00:20:37;;;;;;;18.52;9.75;;;4.70;99.90;;;;;;5019417;28;20052;-84
2022/04/30 00:23:19;;;;;;;19.77;9.73;;;4.70;99.90;;;;;;5053721;28;20483;-83
2022/04/30 00:25:48;;;;;;;19.48;9.52;;;4.70;99.90;;;;;;5036454;28;20107;-84
2022/04/30 00:28:15;;;;;;;19.52;9.80;;;4.70;99.90;;;;;;5037787;28;20055;-84
2022/04/30 00:30:43;;;;;;;18.98;10.07;;;4.70;99.90;;;;;;5056899;28;20053;-84
2022/04/30 00:33:09;;;;;;;19.13;9.35;;;4.60;99.90;;;;;;5059897;28;20045;-83
2022/04/30 00:35:36;;;;;;;15.90;9.15;;;4.60;99.90;;;;;;5057198;28;20102;-84
2022/04/30 00:38:02;;;;;;;15.55;10.10;;;4.80;99.90;;;;;;5037586;28;20109;-82
2022/04/30 00:40:28;;;;;;;15.75;9.20;;;4.60;99.90;;;;;;5024658;28;20518;-83
2022/04/30 00:42:53;;;;;;;17.52;10.48;;;4.50;99.90;;;;;;5040942;28;20049;-83
2022/04/30 00:45:20;;;;;;;18.95;11.00;;;4.50;99.90;;;;;;5060696;28;20111;-83
2022/04/30 00:47:46;;;;;;;21.40;10.30;;;4.40;99.90;;;;;;5043051;28;20045;-82
2022/04/30 00:50:16;;;;;;;19.45;10.20;;;4.40;99.90;;;;;;5042345;28;20071;-82
2022/04/30 00:52:43;;;;;;;20.55;10.07;;;4.40;99.90;;;;;;5058789;28;20045;-84
2022/04/30 00:55:10;;;;;;;23.60;10.88;;;4.40;99.90;;;;;;5040575;28;20087;-85
2022/04/30 00:57:37;;;;;;;19.88;10.70;;;4.30;99.90;;;;;;5023888;28;20049;-83
2022/04/30 01:00:04;;;;;;;18.17;9.98;;;4.20;99.90;;;;;;5039647;28;20059;-84
2022/04/30 01:02:32;;;;;;;19.17;10.57;;;4.10;99.90;;;;;;5056899;28;20053;-83
2022/04/30 01:04:59;;;;;;;22.67;11.32;;;4.00;99.90;;;;;;5056712;28;20052;-83
2022/04/30 01:07:26;;;;;;;19.52;10.10;;;4.00;99.90;;;;;;5056162;28;20049;-83
2022/04/30 01:09:54;;;;;;;19.83;9.93;;;3.90;99.90;;;;;;5056115;28;20049;-83
2022/04/30 01:12:20;;;;;;;21.60;11.13;;;3.80;99.90;;;;;;5038266;28;20041;-83
2022/04/30 01:14:47;;;;;;;18.13;10.75;;;3.70;99.90;;;;;;5055594;28;20499;-83
2022/04/30 01:17:13;;;;;;;17.52;10.82;;;3.70;99.90;;;;;;5055779;28;20124;-83
2022/04/30 01:19:43;;;;;;;20.75;10.25;;;3.60;99.90;;;;;;5037216;28;20060;-83
2022/04/30 01:22:11;;;;;;;27.30;11.55;;;3.50;99.90;;;;;;5055267;28;20610;-83
2022/04/30 01:24:37;;;;;;;21.02;10.73;;;3.50;99.90;;;;;;5037743;28;20053;-83
2022/04/30 01:27:07;;;;;;;21.83;11.18;;;3.40;99.90;;;;;;5055275;28;20178;-83
2022/04/30 01:29:33;;;;;;;21.77;10.73;;;3.50;99.90;;;;;;5055358;28;20037;-84
2022/04/30 01:37:36;;;;;;;29.48;10.98;;;3.20;99.90;;;;;;5055135;28;20447;-83
2022/04/30 01:40:11;;;;;;;18.50;10.57;;;3.10;99.90;;;;;;5054929;28;20124;-84
2022/04/30 01:42:46;;;;;;;17.33;10.00;;;3.10;99.90;;;;;;5037687;28;20391;-84
2022/04/30 01:45:14;;;;;;;24.02;10.10;;;3.10;99.90;;;;;;5053954;28;20052;-84
2022/04/30 01:47:43;;;;;;;20.63;10.90;;;3.00;99.90;;;;;;5054986;28;20080;-84
2022/04/30 01:50:15;;;;;;;24.58;10.43;;;3.00;99.90;;;;;;5037432;28;20048;-85
2022/04/30 01:52:42;;;;;;;21.40;10.07;;;2.90;99.90;;;;;;5054630;28;20102;-84
2022/04/30 01:55:08;;;;;;;19.33;10.45;;;2.90;99.90;;;;;;5036427;28;20131;-84
2022/04/30 01:57:34;;;;;;;22.10;10.63;;;2.90;99.90;;;;;;5037147;28;20045;-84
2022/04/30 02:00:03;;;;;;;21.15;9.88;;;2.80;99.90;;;;;;5054603;28;20124;-85
2022/04/30 02:02:35;;;;;;;24.15;10.43;;;2.80;99.90;;;;;;5054767;28;20053;-84
2022/04/30 02:05:04;;;;;;;24.33;10.15;;;2.90;99.90;;;;;;5036966;28;20165;-84
2022/04/30 02:07:32;;;;;;;20.95;10.65;;;2.80;99.90;;;;;;5036792;28;20052;-83
2022/04/30 02:09:59;;;;;;;20.60;11.15;;;2.70;99.90;;;;;;5020602;28;20089;-84
2022/04/30 02:12:27;;;;;;;21.75;10.80;;;2.70;99.90;;;;;;5037198;28;20088;-83
2022/04/30 02:14:56;;;;;;;29.60;11.35;;;2.70;99.90;;;;;;5054324;28;20387;-84
2022/04/30 02:17:25;;;;;;;32.15;11.23;;;2.90;99.90;;;;;;5035830;28;20061;-88
2022/04/30 02:22:38;;;;;;;23.30;10.38;;;2.70;99.90;;;;;;5054354;28;20049;-84
2022/04/30 02:25:14;;;;;;;22.65;10.52;;;2.70;99.90;;;;;;5036567;28;20445;-84
2022/04/30 02:27:48;;;;;;;22.42;10.57;;;2.60;99.90;;;;;;5036786;28;20063;-84
2022/04/30 02:30:17;;;;;;;27.02;10.75;;;2.60;99.90;;;;;;5036420;28;20056;-84
2022/04/30 02:33:04;;;;;;;23.38;10.10;;;2.60;99.90;;;;;;5019943;28;20445;-83
2022/04/30 02:35:34;;;;;;;20.35;10.10;;;2.60;99.90;;;;;;5053970;28;20048;-84
2022/04/30 02:38:01;;;;;;;21.48;10.57;;;2.60;99.90;;;;;;5019392;28;20517;-84
2022/04/30 02:40:29;;;;;;;14.18;9.07;;;2.60;99.90;;;;;;5035200;28;20096;-84
2022/04/30 02:43:06;;;;;;;16.88;9.77;;;2.60;99.90;;;;;;5053720;28;20521;-83
2022/04/30 02:45:33;;;;;;;28.38;10.93;;;2.60;99.90;;;;;;5036183;28;20477;-84
2022/04/30 02:47:59;;;;;;;20.10;10.65;;;2.60;99.90;;;;;;5035935;28;20490;-84
2022/04/30 02:50:25;;;;;;;27.27;11.05;;;2.60;99.90;;;;;;5036467;28;20074;-84
2022/04/30 02:52:55;;;;;;;27.05;11.32;;;2.60;99.90;;;;;;5035896;28;20414;-86
2022/04/30 02:55:22;;;;;;;24.25;11.43;;;2.60;99.90;;;;;;5053571;28;20137;-84
2022/04/30 03:00:39;;;;;;;21.10;10.35;;;2.70;99.90;;;;;;5035744;28;20465;-84
2022/04/30 03:03:15;;;;;;;28.42;10.95;;;2.60;99.90;;;;;;5036048;28;20052;-84
2022/04/30 03:05:43;;;;;;;24.92;11.05;;;2.70;99.90;;;;;;5035723;28;20122;-84
2022/04/30 03:08:12;;;;;;;29.83;11.18;;;2.70;99.90;;;;;;5034983;28;20088;-85
2022/04/30 03:10:43;;;;;;;25.40;11.38;;;3.00;99.90;;;;;;5035845;28;20065;-84
2022/04/30 03:13:09;;;;;;;18.55;10.77;;;2.70;99.90;;;;;;5035731;28;20037;-84
2022/04/30 03:15:37;;;;;;;21.80;11.05;;;3.00;99.90;;;;;;5018866;28;20048;-84
2022/04/30 03:21:42;;;;;;;27.90;10.35;;;2.80;99.90;;;;;;5035422;28;20401;-85
2022/04/30 03:23:43;;;;;;;19.02;9.98;;;2.80;99.90;;;;;;5034944;28;20045;-84
2022/04/30 03:26:11;;;;;;;22.15;10.57;;;2.90;99.90;;;;;;5053241;28;20052;-85
2022/04/30 03:28:37;;;;;;;24.13;11.00;;;2.90;99.90;;;;;;5053137;28;20406;-84
2022/04/30 03:31:10;;;;;;;29.38;11.40;;;3.10;99.90;;;;;;5052911;28;20041;-85
2022/04/30 03:33:37;;;;;;;25.23;11.32;;;3.10;99.90;;;;;;5035319;28;20454;-85
2022/04/30 03:36:03;;;;;;;22.27;11.50;;;2.90;99.90;;;;;;5018267;28;20057;-84
2022/04/30 03:38:29;;;;;;;31.23;11.88;;;3.10;99.90;;;;;;5052784;28;20076;-86
2022/04/30 03:40:55;;;;;;;24.27;11.43;;;3.20;99.90;;;;;;5053054;28;20088;-84
2022/04/30 03:43:21;;;;;;;19.00;10.85;;;3.50;99.90;;;;;;5052962;28;20135;-83
2022/04/30 03:45:48;;;;;;;21.52;10.73;;;3.10;99.90;;;;;;5052806;28;20123;-84
2022/04/30 03:48:14;;;;;;;24.45;11.27;;;3.20;99.90;;;;;;5034794;28;20059;-88
2022/04/30 03:50:41;;;;;;;27.13;11.35;;;3.20;99.90;;;;;;5052915;28;20044;-84
2022/04/30 03:53:07;;;;;;;22.00;10.65;;;3.20;99.90;;;;;;5017978;28;20076;-84
2022/04/30 03:55:33;;;;;;;23.88;11.27;;;3.30;99.90;;;;;;5052657;28;20049;-85
2022/04/30 03:57:58;;;;;;;19.95;10.05;;;3.30;99.90;;;;;;5034896;28;20049;-83
2022/04/30 04:00:24;;;;;;;23.70;11.32;;;3.40;99.90;;;;;;5052473;28;20041;-83
2022/04/30 04:02:52;;;;;;;15.73;10.00;;;3.40;99.90;;;;;;5034604;28;20406;-84
2022/04/30 04:05:20;;;;;;;20.50;11.10;;;3.40;99.90;;;;;;5033672;28;20057;-84
2022/04/30 04:07:46;;;;;;;21.65;11.15;;;3.40;99.90;;;;;;5052422;28;20044;-83
2022/04/30 04:10:12;;;;;;;20.35;11.02;;;3.60;99.90;;;;;;5034937;28;20052;-83
2022/04/30 04:12:39;;;;;;;21.20;11.15;;;3.40;99.90;;;;;;5018563;28;20505;-84
2022/04/30 04:17:51;;;;;;;18.08;10.00;;;3.50;99.90;;;;;;5035293;28;20407;-83
2022/04/30 04:20:18;;;;;;;21.23;10.60;;;3.50;99.90;;;;;;5059340;28;20051;-84
2022/04/30 04:22:44;;;;;;;16.02;10.05;;;3.50;99.90;;;;;;5058958;28;20055;-84
2022/04/30 04:27:55;;;;;;;18.13;11.27;;;3.60;99.90;;;;;;5041005;28;20494;-84
2022/04/30 04:30:32;;;;;;;15.07;9.80;;;3.60;99.90;;;;;;5024538;28;20056;-84
2022/04/30 04:32:58;;;;;;;23.35;11.05;;;3.60;99.90;;;;;;5058961;28;20040;-85
2022/04/30 04:35:25;;;;;;;26.02;11.77;;;3.60;99.90;;;;;;5059020;28;20041;-83
2022/04/30 04:37:51;;;;;;;22.35;11.45;;;3.60;99.90;;;;;;5058668;28;20513;-84
2022/04/30 04:40:18;;;;;;;17.95;10.60;;;3.60;99.90;;;;;;5058742;28;20059;-84
2022/04/30 04:42:45;;;;;;;20.73;11.07;;;3.80;99.90;;;;;;5040904;28;20079;-84
2022/04/30 04:45:12;;;;;;;22.08;11.02;;;3.70;99.90;;;;;;5058399;28;20068;-84
2022/04/30 04:47:41;;;;;;;22.73;10.77;;;3.80;99.90;;;;;;5041125;28;20056;-83
2022/04/30 04:50:13;;;;;;;26.33;12.18;;;3.80;99.90;;;;;;5040961;28;20449;-84
2022/04/30 04:52:40;;;;;;;20.15;11.43;;;3.90;99.90;;;;;;5058864;28;20044;-83
2022/04/30 04:55:06;;;;;;;17.13;11.52;;;4.00;99.90;;;;;;5058485;28;20087;-83
2022/04/30 04:57:32;;;;;;;29.45;12.13;;;4.00;99.90;;;;;;5058660;28;20045;-84
2022/04/30 04:59:58;;;;;;;22.88;11.32;;;4.00;99.90;;;;;;5040944;28;20559;-83
2022/04/30 05:02:24;;;;;;;17.00;10.70;;;4.10;99.90;;;;;;5041300;28;20037;-83
2022/04/30 05:04:50;;;;;;;21.45;11.82;;;4.40;99.90;;;;;;5058772;28;20091;-84
2022/04/30 05:07:15;;;;;;;26.10;12.05;;;4.40;99.90;;;;;;5041076;28;20106;-83
2022/04/30 05:09:41;;;;;;;17.95;10.98;;;4.20;99.90;;;;;;5058676;28;20049;-83
2022/04/30 05:12:07;;;;;;;22.92;11.85;;;4.30;99.90;;;;;;5024353;28;20115;-83
2022/04/30 05:14:36;;;;;;;18.67;11.05;;;4.40;99.90;;;;;;5058801;28;20397;-83
2022/04/30 05:17:04;;;;;;;19.17;11.48;;;4.60;99.90;;;;;;5023997;28;20064;-83
2022/04/30 05:19:30;;;;;;;19.05;11.35;;;4.70;99.90;;;;;;5058616;28;20044;-88
2022/04/30 05:21:56;;;;;;;21.42;11.38;;;4.80;99.90;;;;;;5040466;28;20140;-83
2022/04/30 05:24:22;;;;;;;20.83;11.18;;;4.90;99.90;;;;;;5040677;28;20146;-84
2022/04/30 05:26:47;;;;;;;20.02;10.95;;;5.00;99.90;;;;;;5058367;28;20052;-83
2022/04/30 05:29:17;;;;;;;17.48;10.68;;;5.10;99.90;;;;;;5058411;28;20453;-83
2022/04/30 05:31:43;;;;;;;16.02;10.32;;;5.20;99.90;;;;;;5037171;28;20045;-83
2022/04/30 05:34:10;;;;;;;14.07;9.27;;;5.30;99.90;;;;;;5037487;28;20079;-83
2022/04/30 05:36:39;;;;;;;14.10;10.30;;;5.40;99.90;;;;;;5037855;28;20094;-83
2022/04/30 05:39:05;;;;;;;16.20;10.50;;;5.40;99.90;;;;;;5054897;28;20045;-84
2022/04/30 05:41:31;;;;;;;18.25;9.57;;;5.50;99.90;;;;;;5037219;28;20057;-85
2022/04/30 05:43:57;;;;;;;15.15;10.13;;;5.70;99.90;;;;;;5037437;28;20091;-83
2022/04/30 05:46:24;;;;;;;15.52;10.07;;;6.00;99.90;;;;;;5054962;28;20053;-83
2022/04/30 05:48:49;;;;;;;16.60;10.10;;;5.90;99.90;;;;;;5055070;28;20060;-83
2022/04/30 05:51:15;;;;;;;18.27;9.73;;;6.00;99.90;;;;;;5037432;28;20044;-85
2022/04/30 05:53:41;;;;;;;14.82;9.70;;;6.10;99.90;;;;;;5021093;28;20099;-84
2022/04/30 05:56:07;;;;;;;13.63;8.68;;;6.20;99.90;;;;;;5054796;28;20080;-83
2022/04/30 05:58:33;;;;;;;15.60;9.35;;;6.40;99.90;;;;;;5054672;28;20048;-90
2022/04/30 06:00:59;;;;;;;16.85;9.52;;;6.50;99.90;;;;;;5055058;28;20053;-85
2022/04/30 06:03:25;;;;;;;13.18;9.20;;;6.70;99.90;;;;;;5037358;28;20372;-83
2022/04/30 06:05:51;;;;;;;16.67;9.07;;;6.80;99.90;;;;;;5054734;28;20049;-84
2022/04/30 06:08:16;;;;;;;17.45;9.55;;;7.10;99.90;;;;;;5054765;28;20044;-83
2022/04/30 06:10:42;;;;;;;16.23;8.88;;;7.00;99.90;;;;;;5036254;28;20187;-85
2022/04/30 06:13:07;;;;;;;12.63;9.43;;;7.20;99.90;;;;;;5036269;28;20117;-84
2022/04/30 06:15:33;;;;;;;14.52;8.93;;;7.20;99.90;;;;;;5054620;28;20064;-83
2022/04/30 06:17:59;;;;;;;15.75;9.30;;;7.40;99.90;;;;;;5037222;28;20149;-84
2022/04/30 06:20:25;;;;;;;12.90;8.85;;;7.40;99.90;;;;;;5036499;28;20045;-83
2022/04/30 06:22:50;;;;;;;13.52;8.90;;;7.50;99.90;;;;;;5036911;28;20137;-83
2022/04/30 06:25:17;;;;;;;15.15;8.45;;;7.60;99.90;;;;;;5036841;28;20045;-83
2022/04/30 06:27:45;;;;;;;13.02;8.30;;;7.80;99.90;;;;;;5054240;28;20053;-84
2022/04/30 06:30:11;;;;;;;15.18;8.98;;;7.90;99.90;;;;;;5054285;28;20118;-85
2022/04/30 06:32:37;;;;;;;16.80;8.50;;;8.00;99.90;;;;;;5036107;28;20491;-84
2022/04/30 06:35:03;;;;;;;17.52;8.23;;;8.20;99.90;;;;;;5053140;28;20043;-84
2022/04/30 06:37:29;;;;;;;13.90;8.45;;;8.30;99.90;;;;;;5036656;28;20118;-84
2022/04/30 06:39:55;;;;;;;12.88;7.65;;;8.40;99.90;;;;;;5036388;28;20049;-84
2022/04/30 06:42:20;;;;;;;13.68;8.00;;;8.40;99.90;;;;;;5036115;28;20044;-84
2022/04/30 06:44:47;;;;;;;15.93;8.30;;;8.40;99.90;;;;;;5053984;28;20111;-84
2022/04/30 06:47:14;;;;;;;12.75;7.50;;;8.60;99.90;;;;;;5036224;28;20057;-84
2022/04/30 06:49:40;;;;;;;15.23;7.85;;;8.50;99.90;;;;;;5035569;28;20087;-84
2022/04/30 06:52:07;;;;;;;10.73;7.00;;;8.50;99.90;;;;;;5036305;28;20546;-83
2022/04/30 06:57:20;;;;;;;13.10;7.63;;;8.60;99.90;;;;;;5054068;28;20414;-85
2022/04/30 06:59:46;;;;;;;12.15;7.32;;;8.70;99.90;;;;;;5053566;28;20445;-84
2022/04/30 07:02:19;;;;;;;13.73;7.72;;;8.70;99.90;;;;;;5039146;28;20049;-86
2022/04/30 07:04:49;;;;;;;14.52;6.80;;;8.80;99.90;;;;;;5037784;28;20110;-84
2022/04/30 07:07:15;;;;;;;9.17;6.60;;;8.80;99.90;;;;;;5047791;28;20037;-84
2022/04/30 07:09:41;;;;;;;10.60;6.63;;;8.90;99.90;;;;;;5034109;28;20502;-84
2022/04/30 07:12:09;;;;;;;11.50;7.55;;;9.00;99.90;;;;;;5051923;28;20049;-84
2022/04/30 07:14:37;;;;;;;14.50;6.70;;;9.10;99.90;;;;;;5053287;28;20056;-86
2022/04/30 07:17:15;;;;;;;12.48;6.78;;;9.20;99.90;;;;;;5032339;28;20084;-84
2022/04/30 07:19:41;;;;;;;12.35;6.55;;;9.30;99.90;;;;;;5047966;28;20057;-84
2022/04/30 07:22:07;;;;;;;11.63;6.20;;;9.30;99.90;;;;;;5044707;28;20442;-84
2022/04/30 07:24:34;;;;;;;15.57;7.30;;;9.40;99.90;;;;;;5034610;28;20049;-84
2022/04/30 07:27:00;;;;;;;9.35;6.82;;;9.40;99.90;;;;;;4999447;28;20064;-86
2022/04/30 07:29:26;;;;;;;12.60;6.13;;;9.40;99.90;;;;;;5034982;28;20060;-84
2022/04/30 07:31:52;;;;;;;10.68;6.45;;;9.40;99.90;;;;;;5053204;28;20049;-85
2022/04/30 07:34:18;;;;;;;11.27;6.60;;;9.60;99.90;;;;;;5052101;28;20041;-84
2022/04/30 07:36:44;;;;;;;14.63;7.45;;;9.60;99.90;;;;;;5052956;28;20040;-84
2022/04/30 07:39:10;;;;;;;16.05;7.13;;;9.80;99.90;;;;;;5018538;28;20063;-85
2022/04/30 07:41:36;;;;;;;9.70;6.38;;;9.90;99.90;;;;;;5053340;28;20063;-84
2022/04/30 07:44:02;;;;;;;10.63;6.63;;;10.00;99.90;;;;;;5035002;28;20469;-87
2022/04/30 07:46:28;;;;;;;12.77;6.75;;;10.20;99.90;;;;;;5034899;28;20056;-84
2022/04/30 07:48:53;;;;;;;12.25;6.05;;;10.40;99.90;;;;;;5035336;28;20040;-84
2022/04/30 07:51:33;;;;;;;7.40;6.10;;;10.60;99.90;;;;;;5052776;28;20110;-86
2022/04/30 07:54:02;;;;;;;8.85;5.63;;;10.90;99.90;;;;;;5017462;28;20057;-85
2022/04/30 07:56:28;;;;;;;9.88;5.00;;;11.40;99.90;;;;;;5019025;28;20514;-85
2022/04/30 07:58:56;;;;;;;10.73;5.70;;;11.70;99.90;;;;;;5052711;28;20080;-86
2022/04/30 08:01:22;;;;;;;5.40;4.43;;;12.60;99.90;;;;;;5034678;28;20056;-84
2022/04/30 08:03:48;;;;;;;8.25;5.32;;;13.50;99.90;;;;;;5051423;28;20441;-85
2022/04/30 08:06:14;;;;;;;9.95;5.22;;;13.90;99.90;;;;;;5034137;28;20494;-85
2022/04/30 08:08:39;;;;;;;10.73;5.35;;;14.00;99.90;;;;;;5034621;28;20053;-86
2022/04/30 08:11:05;;;;;;;8.30;5.10;;;14.10;99.90;;;;;;5034805;28;20049;-89
2022/04/30 08:13:31;;;;;;;11.70;5.60;;;14.30;99.90;;;;;;5034654;28;20065;-85
2022/04/30 08:15:56;;;;;;;10.57;5.88;;;14.20;99.90;;;;;;5052416;28;20375;-85
2022/04/30 08:18:24;;;;;;;11.25;5.00;;;14.30;99.90;;;;;;5052489;28;20510;-86
2022/04/30 08:20:50;;;;;;;14.82;5.90;;;14.50;99.90;;;;;;5034554;28;20383;-85
2022/04/30 08:23:18;;;;;;;10.27;5.45;;;14.80;99.90;;;;;;5052497;28;20049;-85
2022/04/30 08:25:44;;;;;;;12.05;5.32;;;14.60;99.90;;;;;;5034738;28;20045;-85
2022/04/30 08:28:09;;;;;;;7.05;4.93;;;14.60;99.90;;;;;;5051402;28;20059;-86
2022/04/30 08:30:35;;;;;;;8.80;5.32;;;14.10;99.90;;;;;;5034025;28;20057;-85
2022/04/30 08:33:01;;;;;;;8.32;5.40;;;14.00;99.90;;;;;;5034189;28;20104;-86
2022/04/30 08:35:26;;;;;;;10.35;6.13;;;13.60;99.90;;;;;;5034593;28;20037;-85
2022/04/30 08:37:53;;;;;;;9.30;4.80;;;13.50;99.90;;;;;;5034629;28;20041;-86
2022/04/30 08:40:18;;;;;;;8.10;5.22;;;13.50;99.90;;;;;;5052142;28;20055;-85
2022/04/30 08:42:44;;;;;;;8.07;4.95;;;13.60;99.90;;;;;;5052625;28;20389;-86
2022/04/30 08:45:10;;;;;;;9.57;4.35;;;13.80;99.90;;;;;;5051867;28;20096;-85
2022/04/30 08:47:40;;;;;;;10.00;4.80;;;13.80;99.90;;;;;;5052111;28;20107;-86
2022/04/30 08:50:11;;;;;;;9.00;4.75;;;13.90;99.90;;;;;;5052286;28;20055;-84
2022/04/30 08:52:37;;;;;;;6.28;4.07;;;13.80;99.90;;;;;;5052277;28;20053;-85
2022/04/30 08:55:04;;;;;;;12.43;4.90;;;13.90;99.90;;;;;;5034896;28;20123;-86
2022/04/30 08:57:30;;;;;;;10.40;4.70;;;14.20;99.90;;;;;;5034959;28;20441;-87
2022/04/30 08:59:57;;;;;;;8.45;4.65;;;15.10;99.90;;;;;;5051666;28;20045;-85
2022/04/30 09:02:23;;;;;;;10.32;4.85;;;16.30;99.90;;;;;;5034640;28;20053;-85
2022/04/30 09:04:49;;;;;;;10.82;4.80;;;17.30;99.90;;;;;;5035648;28;20048;-86
2022/04/30 09:07:29;;;;;;;8.80;4.38;;;17.50;97.10;;;;;;5040487;28;20044;-87
2022/04/30 09:09:56;;;;;;;9.60;3.85;;;17.50;98.90;;;;;;5023558;28;20096;-86
2022/04/30 09:12:23;;;;;;;10.63;3.90;;;18.00;95.50;;;;;;5041149;28;20057;-85
2022/04/30 09:14:49;;;;;;;11.07;4.22;;;18.10;90.80;;;;;;5026088;28;20056;-89
2022/04/30 09:17:16;;;;;;;9.75;5.90;;;17.50;91.40;;;;;;5040841;28;20146;-86
2022/04/30 09:20:01;;;;;;;7.88;4.45;;;16.90;93.40;;;;;;5059065;28;20135;-86
2022/04/30 09:22:37;;;;;;;7.97;4.60;;;16.20;95.20;;;;;;5039894;28;20052;-85
2022/04/30 09:25:13;;;;;;;9.93;4.90;;;16.10;96.70;;;;;;5035879;28;20128;-85
2022/04/30 09:27:44;;;;;;;11.60;5.05;;;16.30;95.10;;;;;;5035651;28;20041;-87
2022/04/30 09:30:29;;;;;;;9.50;4.75;;;16.30;94.30;;;;;;5037359;28;20106;-86
2022/04/30 09:33:03;;;;;;;9.95;4.97;;;16.20;92.20;;;;;;5036522;28;20384;-86
2022/04/30 09:38:15;;;;;;;8.57;4.22;;;15.90;95.60;;;;;;5036036;28;20045;-88
2022/04/30 09:40:55;;;;;;;11.57;3.83;;;15.90;96.00;;;;;;5016192;28;20410;-87
2022/04/30 09:43:27;;;;;;;9.10;4.18;;;16.20;94.30;;;;;;5048994;28;20064;-87
2022/04/30 09:45:58;;;;;;;4.90;3.38;;;16.60;91.90;;;;;;5033354;28;20049;-87
2022/04/30 09:54:00;;;;;;;5.88;3.30;;;17.40;78.20;;;;;;5037063;28;20068;-87
2022/04/30 09:56:37;;;;;;;6.05;3.00;;;17.30;76.70;;;;;;5037449;28;20045;-86
2022/04/30 09:59:11;;;;;;;7.97;4.13;;;17.20;75.20;;;;;;5020381;28;20063;-87
2022/04/30 10:01:39;;;;;;;7.72;2.88;;;17.00;76.70;;;;;;5019913;28;20084;-87
2022/04/30 10:04:11;;;;;;;6.03;3.00;;;16.90;76.80;;;;;;5020239;28;20132;-88
2022/04/30 10:06:51;;;;;;;11.00;3.35;;;16.90;74.30;;;;;;5035675;28;20403;-86
2022/04/30 10:09:22;;;;;;;7.63;4.33;;;17.10;72.80;;;;;;5020199;28;20136;-87
2022/04/30 10:11:56;;;;;;;6.70;3.80;;;17.20;73.20;;;;;;5020192;28;20051;-87
2022/04/30 10:14:40;;;;;;;10.18;4.47;;;17.30;72.00;;;;;;5054360;28;20053;-86
2022/04/30 10:17:12;;;;;;;7.93;3.78;;;17.10;70.70;;;;;;5052756;28;20471;-86
2022/04/30 10:19:39;;;;;;;7.60;4.05;;;16.90;75.80;;;;;;5053520;28;20063;-86
2022/04/30 10:22:12;;;;;;;9.10;4.40;;;16.50;80.00;;;;;;5053666;28;20041;-88
2022/04/30 10:24:49;;;;;;;11.05;5.00;;;16.10;84.20;;;;;;5054417;28;20470;-87
2022/04/30 10:27:16;;;;;;;9.38;4.60;;;15.60;88.70;;;;;;5053171;28;20140;-87
2022/04/30 10:29:58;;;;;;;11.23;4.85;;;15.20;92.40;;;;;;5036777;28;20051;-86
2022/04/30 10:32:32;;;;;;;6.13;4.13;;;14.90;94.90;;;;;;5054428;28;20430;-86
2022/04/30 10:34:59;;;;;;;7.30;3.72;;;14.60;95.40;;;;;;5053533;28;20040;-87
2022/04/30 10:37:30;;;;;;;7.18;4.28;;;14.30;96.70;;;;;;5054396;28;20052;-86
2022/04/30 10:39:56;;;;;;;;;;;14.00;98.20;;;;;;5036682;28;20037;-86
2022/04/30 10:42:42;;;;;;;8.05;4.40;;;13.70;97.10;;;;;;5036688;28;20007;-86
2022/04/30 10:45:12;;;;;;;8.93;4.15;;;13.50;99.00;;;;;;5035583;28;20049;-85
2022/04/30 10:47:52;;;;;;;8.38;4.25;;;13.30;99.90;;;;;;5036153;28;20065;-86
2022/04/30 10:50:18;;;;;;;7.25;3.97;;;13.10;99.90;;;;;;5036257;28;20091;-86
2022/04/30 10:52:48;;;;;;;7.60;4.68;;;12.90;99.90;;;;;;5052985;28;20080;-85
2022/04/30 10:55:16;;;;;;;12.23;4.68;;;12.80;99.90;;;;;;5035862;28;20045;-85
2022/04/30 10:57:42;;;;;;;8.15;4.20;;;12.60;99.90;;;;;;5052748;28;20430;-86
2022/04/30 11:00:08;;;;;;;11.70;4.90;;;12.50;99.90;;;;;;5053573;28;20118;-85
2022/04/30 11:02:34;;;;;;;10.30;4.57;;;12.40;99.90;;;;;;5019818;28;20087;-86
2022/04/30 11:05:01;;;;;;;10.07;4.57;;;12.30;99.90;;;;;;5035791;28;20056;-87
2022/04/30 11:07:28;;;;;;;7.50;4.28;;;12.20;99.90;;;;;;5019158;28;20060;-86
2022/04/30 11:09:54;;;;;;;10.63;4.22;;;12.20;99.90;;;;;;5036004;28;20045;-85
2022/04/30 11:12:20;;;;;;;7.68;4.47;;;12.10;99.90;;;;;;5053664;28;20047;-86
2022/04/30 11:14:45;;;;;;;8.85;4.35;;;12.00;99.90;;;;;;5035597;28;20040;-86
2022/04/30 11:17:11;;;;;;;10.38;4.32;;;12.10;99.90;;;;;;5035171;28;20083;-85
2022/04/30 11:19:41;;;;;;;7.55;4.07;;;12.00;99.90;;;;;;5035880;28;20091;-85
2022/04/30 11:22:11;;;;;;;7.18;3.95;;;12.10;99.90;;;;;;5053314;28;20059;-87
2022/04/30 11:24:37;;;;;;;12.77;4.05;;;12.00;99.90;;;;;;5035493;28;20060;-86
2022/04/30 11:27:05;;;;;;;10.38;3.85;;;12.00;99.90;;;;;;5034996;28;20061;-85
2022/04/30 11:29:32;;;;;;;6.30;3.58;;;12.10;99.90;;;;;;5052580;28;20060;-85
2022/04/30 11:31:59;;;;;;;6.40;4.18;;;12.10;99.90;;;;;;5035595;28;20041;-86
2022/04/30 11:34:25;;;;;;;8.55;4.13;;;12.10;99.90;;;;;;5018641;28;20041;-86
2022/04/30 11:36:59;;;;;;;8.75;4.00;;;12.30;99.90;;;;;;5053332;28;20078;-86
2022/04/30 11:39:26;;;;;;;9.05;4.60;;;12.40;99.90;;;;;;5034998;28;20383;-85
2022/04/30 11:41:53;;;;;;;6.88;4.07;;;12.50;99.90;;;;;;5019028;28;20045;-86
2022/04/30 11:44:21;;;;;;;12.45;4.13;;;12.50;99.90;;;;;;5052971;28;20049;-85
2022/04/30 11:46:51;;;;;;;7.70;3.67;;;12.60;99.90;;;;;;5052636;28;20494;-85
2022/04/30 11:49:18;;;;;;;6.18;3.63;;;12.70;99.50;;;;;;5018576;28;20045;-85
2022/04/30 11:51:46;;;;;;;8.02;4.13;;;12.80;98.80;;;;;;5035096;28;20435;-85
2022/04/30 11:54:23;;;;;;;7.18;3.58;;;12.90;98.40;;;;;;5034932;28;20088;-86
2022/04/30 11:56:50;;;;;;;10.82;3.83;;;13.10;98.00;;;;;;5017956;28;20052;-86
2022/04/30 11:59:27;;;;;;;11.65;4.32;;;13.20;99.10;;;;;;5035146;28;20049;-85
2022/04/30 12:01:53;;;;;;;8.23;3.45;;;13.30;97.40;;;;;;5035006;28;20045;-85
2022/04/30 12:04:21;;;;;;;9.02;4.38;;;13.30;97.30;;;;;;5052707;28;20052;-86
2022/04/30 12:06:58;;;;;;;7.50;4.00;;;13.40;97.80;;;;;;5052888;28;20052;-86
2022/04/30 12:09:30;;;;;;;6.80;3.95;;;13.50;98.00;;;;;;5034877;28;20402;-85
2022/04/30 12:11:56;;;;;;;5.72;3.83;;;13.50;98.00;;;;;;5035027;28;20079;-87
2022/04/30 12:14:22;;;;;;;11.68;4.63;;;13.60;96.90;;;;;;5052513;28;20041;-86
2022/04/30 12:16:49;;;;;;;10.65;5.40;;;13.60;97.20;;;;;;5035252;28;20037;-84
2022/04/30 12:25:27;;;;;;;11.45;5.07;;;13.50;99.40;;;;;;5052349;28;20284;-86
2022/04/30 12:28:06;;;;;;;10.23;5.97;;;13.40;99.90;;;;;;5052909;28;20048;-86
2022/04/30 12:30:33;;;;;;;10.00;5.57;;;13.20;99.90;;;;;;5052490;28;20041;-87
2022/04/30 12:33:00;;;;;;;13.38;6.10;;;13.00;99.90;;;;;;5034921;28;20052;-85
2022/04/30 12:35:33;;;;;;;12.82;5.70;;;12.80;99.90;;;;;;5034435;28;20041;-86
2022/04/30 12:38:12;;;;;;;12.00;6.15;;;12.60;99.90;;;;;;5034885;28;20589;-86
2022/04/30 12:40:43;;;;;;;13.65;5.80;;;12.60;99.90;;;;;;5055488;28;20041;-86
2022/04/30 12:43:09;;;;;;;;;;;12.50;99.90;;;;;;5038895;28;20057;-86
2022/04/30 12:45:37;;;;;;;7.97;5.65;;;12.50;99.90;;;;;;5038635;28;19972;-88
2022/04/30 12:48:04;;;;;;;12.70;5.45;;;12.50;99.90;;;;;;5055849;28;20048;-86
2022/04/30 12:50:32;;;;;;;9.05;5.40;;;12.40;99.90;;;;;;5056611;28;20051;-85
2022/04/30 12:52:58;;;;;;;10.10;5.90;;;12.40;99.90;;;;;;5022006;28;20441;-87
2022/04/30 12:55:29;;;;;;;9.85;5.53;;;12.40;99.90;;;;;;5022006;28;20131;-88
2022/04/30 12:57:55;;;;;;;;;;;12.40;99.90;;;;;;5056942;28;20040;-84
2022/04/30 13:00:21;;;;;;;11.35;5.63;;;12.40;99.90;;;;;;5038418;28;19920;-85
2022/04/30 13:02:47;;;;;;;11.93;5.63;;;12.30;99.90;;;;;;5021421;28;20048;-86
2022/04/30 13:05:13;;;;;;;8.40;4.32;;;12.20;99.90;;;;;;5055992;28;20453;-86
2022/04/30 13:07:41;;;;;;;9.02;5.03;;;12.20;99.90;;;;;;5038265;28;20063;-86
2022/04/30 13:15:38;;;;;;;8.07;4.88;;;12.20;99.90;;;;;;5055620;28;20114;-86
2022/04/30 13:18:04;;;;;;;8.63;5.15;;;12.20;99.90;;;;;;5021380;28;20129;-86
2022/04/30 13:20:30;;;;;;;10.05;5.25;;;12.20;99.90;;;;;;5055743;28;20061;-86
2022/04/30 13:22:59;;;;;;;7.85;4.60;;;12.20;99.90;;;;;;5021011;28;20459;-86
2022/04/30 13:25:30;;;;;;;9.82;5.00;;;12.10;99.90;;;;;;5021297;28;20461;-87
2022/04/30 13:27:57;;;;;;;11.57;4.57;;;12.30;99.90;;;;;;5037459;28;20049;-86
2022/04/30 13:30:30;;;;;;;8.88;4.32;;;12.10;99.90;;;;;;5055674;28;20041;-86